sensor_id;sensor_type;location;lat;lon;timestamp;pressure;altitude;pressure_sealevel;temperature;humidity
39789;BME280;25478;42.626;23.320;2023-08-24T00:02:06;93342.16;;;22.18;67.54
39789;BME280;25478;42.626;23.320;2023-08-24T00:04:32;93338.88;;;22.14;67.98
39789;BME280;25478;42.626;23.320;2023-08-24T00:06:58;93343.78;;;22.16;68.10
39789;BME280;25478;42.626;23.320;2023-08-24T00:09:23;93348.13;;;22.13;68.35
39789;BME280;25478;42.626;23.320;2023-08-24T00:11:50;93333.00;;;22.07;67.80
39789;BME280;25478;42.626;23.320;2023-08-24T00:14:15;93338.25;;;22.10;67.86
39789;BME280;25478;42.626;23.320;2023-08-24T00:16:42;93338.25;;;22.10;67.38
39789;BME280;25478;42.626;23.320;2023-08-24T00:19:07;93335.56;;;22.10;67.26
39789;BME280;25478;42.626;23.320;2023-08-24T00:21:33;93310.03;;;21.97;66.98
39789;BME280;25478;42.626;23.320;2023-08-24T00:23:58;93327.22;;;22.08;66.91
39789;BME280;25478;42.626;23.320;2023-08-24T00:26:25;93316.00;;;22.01;66.83
39789;BME280;25478;42.626;23.320;2023-08-24T00:28:51;93315.75;;;22.08;67.07
39789;BME280;25478;42.626;23.320;2023-08-24T00:31:18;93323.06;;;22.07;66.87
39789;BME280;25478;42.626;23.320;2023-08-24T00:33:45;93326.91;;;22.06;66.94
39789;BME280;25478;42.626;23.320;2023-08-24T00:36:10;93326.59;;;22.04;66.90
39789;BME280;25478;42.626;23.320;2023-08-24T00:38:37;93320.91;;;22.02;66.82
39789;BME280;25478;42.626;23.320;2023-08-24T00:41:03;93319.88;;;22.00;66.27
39789;BME280;25478;42.626;23.320;2023-08-24T00:43:28;93318.38;;;21.99;66.17
39789;BME280;25478;42.626;23.320;2023-08-24T00:45:59;93321.06;;;21.99;66.02
39789;BME280;25478;42.626;23.320;2023-08-24T00:48:27;93328.06;;;21.96;66.09
39789;BME280;25478;42.626;23.320;2023-08-24T00:51:04;93325.03;;;21.94;66.10
39789;BME280;25478;42.626;23.320;2023-08-24T00:53:31;93328.91;;;21.93;66.14
39789;BME280;25478;42.626;23.320;2023-08-24T00:55:58;93330.09;;;21.92;66.03
39789;BME280;25478;42.626;23.320;2023-08-24T00:58:26;93326.38;;;21.89;66.23
39789;BME280;25478;42.626;23.320;2023-08-24T01:00:52;93320.97;;;21.80;66.06
39789;BME280;25478;42.626;23.320;2023-08-24T01:03:21;93324.25;;;21.84;66.08
39789;BME280;25478;42.626;23.320;2023-08-24T01:05:47;93327.53;;;21.79;66.53
39789;BME280;25478;42.626;23.320;2023-08-24T01:08:13;93326.44;;;21.77;66.81
39789;BME280;25478;42.626;23.320;2023-08-24T01:10:42;93318.13;;;21.75;66.81
39789;BME280;25478;42.626;23.320;2023-08-24T01:13:11;93317.81;;;21.73;66.53
39789;BME280;25478;42.626;23.320;2023-08-24T01:16:00;93319.44;;;21.70;66.64
39789;BME280;25478;42.626;23.320;2023-08-24T01:18:30;93319.84;;;21.69;66.80
39789;BME280;25478;42.626;23.320;2023-08-24T01:20:57;93302.25;;;21.58;66.76
39789;BME280;25478;42.626;23.320;2023-08-24T01:23:35;93314.94;;;21.67;66.87
39789;BME280;25478;42.626;23.320;2023-08-24T01:26:11;93318.81;;;21.66;66.73
39789;BME280;25478;42.626;23.320;2023-08-24T01:28:37;93315.09;;;21.63;66.71
39789;BME280;25478;42.626;23.320;2023-08-24T01:31:04;93319.69;;;21.63;66.77
39789;BME280;25478;42.626;23.320;2023-08-24T01:33:30;93321.75;;;21.59;66.92
39789;BME280;25478;42.626;23.320;2023-08-24T01:35:56;93323.38;;;21.56;67.52
39789;BME280;25478;42.626;23.320;2023-08-24T01:38:22;93315.47;;;21.53;68.23
39789;BME280;25478;42.626;23.320;2023-08-24T01:41:10;93313.66;;;21.50;68.51
39789;BME280;25478;42.626;23.320;2023-08-24T01:43:39;93318.84;;;21.44;69.28
39789;BME280;25478;42.626;23.320;2023-08-24T01:46:06;93318.22;;;21.40;69.35
39789;BME280;25478;42.626;23.320;2023-08-24T01:48:32;93328.72;;;21.34;69.50
39789;BME280;25478;42.626;23.320;2023-08-24T01:50:59;93324.38;;;21.28;70.08
39789;BME280;25478;42.626;23.320;2023-08-24T01:53:27;93296.06;;;21.05;70.81
39789;BME280;25478;42.626;23.320;2023-08-24T01:55:53;93316.81;;;21.14;71.03
39789;BME280;25478;42.626;23.320;2023-08-24T01:58:19;93305.16;;;21.07;71.66
39789;BME280;25478;42.626;23.320;2023-08-24T02:00:45;93316.44;;;21.02;72.03
39789;BME280;25478;42.626;23.320;2023-08-24T02:03:10;93312.66;;;21.00;73.09
39789;BME280;25478;42.626;23.320;2023-08-24T02:05:36;93310.88;;;20.97;73.55
39789;BME280;25478;42.626;23.320;2023-08-24T02:08:01;93306.41;;;20.94;72.87
39789;BME280;25478;42.626;23.320;2023-08-24T02:10:27;93317.94;;;20.91;72.85
39789;BME280;25478;42.626;23.320;2023-08-24T02:12:52;93317.19;;;20.90;72.66
39789;BME280;25478;42.626;23.320;2023-08-24T02:15:18;93312.84;;;20.84;73.03
39789;BME280;25478;42.626;23.320;2023-08-24T02:17:43;93292.59;;;20.61;73.44
39789;BME280;25478;42.626;23.320;2023-08-24T02:20:10;93325.59;;;20.79;74.02
39789;BME280;25478;42.626;23.320;2023-08-24T02:22:37;93331.03;;;20.76;74.65
39789;BME280;25478;42.626;23.320;2023-08-24T02:25:03;93329.56;;;20.75;75.21
39789;BME280;25478;42.626;23.320;2023-08-24T02:27:31;93334.59;;;20.73;75.43
39789;BME280;25478;42.626;23.320;2023-08-24T02:29:56;93327.00;;;20.71;76.43
39789;BME280;25478;42.626;23.320;2023-08-24T02:32:22;93306.63;;;20.52;77.44
39789;BME280;25478;42.626;23.320;2023-08-24T02:34:47;93333.63;;;20.67;78.08
39789;BME280;25478;42.626;23.320;2023-08-24T02:37:13;93336.75;;;20.65;78.43
39789;BME280;25478;42.626;23.320;2023-08-24T02:39:41;93330.66;;;20.65;78.60
39789;BME280;25478;42.626;23.320;2023-08-24T02:42:06;93327.75;;;20.59;78.49
39789;BME280;25478;42.626;23.320;2023-08-24T02:44:31;93328.84;;;20.62;78.32
39789;BME280;25478;42.626;23.320;2023-08-24T02:46:57;93323.94;;;20.60;78.57
39789;BME280;25478;42.626;23.320;2023-08-24T02:49:24;93322.22;;;20.54;78.63
39789;BME280;25478;42.626;23.320;2023-08-24T02:51:49;93325.53;;;20.58;78.20
39789;BME280;25478;42.626;23.320;2023-08-24T02:54:15;93316.00;;;20.57;77.47
39789;BME280;25478;42.626;23.320;2023-08-24T02:56:41;93310.56;;;20.60;77.62
39789;BME280;25478;42.626;23.320;2023-08-24T02:59:07;93308.63;;;20.61;77.11
39789;BME280;25478;42.626;23.320;2023-08-24T03:01:32;93307.44;;;20.62;76.77
39789;BME280;25478;42.626;23.320;2023-08-24T03:03:59;93299.72;;;20.64;76.82
39789;BME280;25478;42.626;23.320;2023-08-24T03:06:25;93297.81;;;20.64;76.45
39789;BME280;25478;42.626;23.320;2023-08-24T03:08:51;93298.13;;;20.66;76.81
39789;BME280;25478;42.626;23.320;2023-08-24T03:11:16;93293.50;;;20.67;76.74
39789;BME280;25478;42.626;23.320;2023-08-24T03:13:42;93302.72;;;20.66;76.72
39789;BME280;25478;42.626;23.320;2023-08-24T03:16:08;93290.00;;;20.57;76.20
39789;BME280;25478;42.626;23.320;2023-08-24T03:18:35;93304.22;;;20.67;76.08
39789;BME280;25478;42.626;23.320;2023-08-24T03:21:02;93304.22;;;20.67;76.06
39789;BME280;25478;42.626;23.320;2023-08-24T03:23:28;93311.06;;;20.68;76.46
39789;BME280;25478;42.626;23.320;2023-08-24T03:25:55;93325.94;;;20.69;76.26
39789;BME280;25478;42.626;23.320;2023-08-24T03:28:20;93342.31;;;20.58;77.64
39789;BME280;25478;42.626;23.320;2023-08-24T03:30:51;93345.47;;;20.44;79.08
39789;BME280;25478;42.626;23.320;2023-08-24T03:33:17;93340.81;;;20.32;81.11
39789;BME280;25478;42.626;23.320;2023-08-24T03:35:42;93329.81;;;20.17;82.35
39789;BME280;25478;42.626;23.320;2023-08-24T03:38:08;93343.41;;;20.22;83.32
39789;BME280;25478;42.626;23.320;2023-08-24T03:40:34;93344.16;;;20.23;84.29
39789;BME280;25478;42.626;23.320;2023-08-24T03:43:01;93343.84;;;20.21;84.59
39789;BME280;25478;42.626;23.320;2023-08-24T03:45:27;93346.38;;;20.24;84.62
39789;BME280;25478;42.626;23.320;2023-08-24T03:47:52;93346.81;;;20.23;84.72
39789;BME280;25478;42.626;23.320;2023-08-24T03:50:18;93345.31;;;20.22;85.09
39789;BME280;25478;42.626;23.320;2023-08-24T03:52:43;93348.22;;;20.15;85.27
39789;BME280;25478;42.626;23.320;2023-08-24T03:55:10;93360.63;;;20.21;85.29
39789;BME280;25478;42.626;23.320;2023-08-24T03:57:37;93362.53;;;20.21;85.56
39789;BME280;25478;42.626;23.320;2023-08-24T04:00:04;93359.88;;;20.21;85.59
39789;BME280;25478;42.626;23.320;2023-08-24T04:02:39;93366.81;;;20.18;86.13
39789;BME280;25478;42.626;23.320;2023-08-24T04:05:05;93374.84;;;20.18;86.16
39789;BME280;25478;42.626;23.320;2023-08-24T04:07:30;93372.16;;;20.18;86.35
39789;BME280;25478;42.626;23.320;2023-08-24T04:09:56;93365.72;;;20.16;86.30
39789;BME280;25478;42.626;23.320;2023-08-24T04:12:22;93360.38;;;20.16;86.22
39789;BME280;25478;42.626;23.320;2023-08-24T04:14:48;93349.50;;;20.10;86.00
39789;BME280;25478;42.626;23.320;2023-08-24T04:17:14;93364.47;;;20.20;85.75
39789;BME280;25478;42.626;23.320;2023-08-24T04:19:39;93356.13;;;20.18;85.41
39789;BME280;25478;42.626;23.320;2023-08-24T04:22:05;93357.63;;;20.19;85.18
39789;BME280;25478;42.626;23.320;2023-08-24T04:24:30;93350.78;;;20.18;84.91
39789;BME280;25478;42.626;23.320;2023-08-24T04:26:56;93348.53;;;20.17;85.17
39789;BME280;25478;42.626;23.320;2023-08-24T04:29:21;93352.38;;;20.16;85.36
39789;BME280;25478;42.626;23.320;2023-08-24T04:31:47;93345.97;;;20.13;85.53
39789;BME280;25478;42.626;23.320;2023-08-24T04:34:13;93345.97;;;20.13;85.70
39789;BME280;25478;42.626;23.320;2023-08-24T04:36:38;93337.19;;;20.13;85.99
39789;BME280;25478;42.626;23.320;2023-08-24T04:39:04;93317.00;;;19.99;86.12
39789;BME280;25478;42.626;23.320;2023-08-24T04:41:29;93352.06;;;20.14;86.11
39789;BME280;25478;42.626;23.320;2023-08-24T04:43:54;93361.34;;;20.09;86.48
39789;BME280;25478;42.626;23.320;2023-08-24T04:46:20;93366.19;;;20.02;86.44
39789;BME280;25478;42.626;23.320;2023-08-24T04:48:45;93369.59;;;20.02;86.56
39789;BME280;25478;42.626;23.320;2023-08-24T04:51:11;93374.81;;;20.06;86.92
39789;BME280;25478;42.626;23.320;2023-08-24T04:53:36;93381.56;;;20.10;87.58
39789;BME280;25478;42.626;23.320;2023-08-24T04:56:02;93385.63;;;20.15;87.88
39789;BME280;25478;42.626;23.320;2023-08-24T04:58:27;93375.91;;;20.21;87.87
39789;BME280;25478;42.626;23.320;2023-08-24T05:00:53;93365.53;;;20.23;88.13
39789;BME280;25478;42.626;23.320;2023-08-24T05:03:21;93371.41;;;20.31;88.28
39789;BME280;25478;42.626;23.320;2023-08-24T05:05:47;93365.09;;;20.37;88.07
39789;BME280;25478;42.626;23.320;2023-08-24T05:08:12;93359.13;;;20.46;87.45
39789;BME280;25478;42.626;23.320;2023-08-24T05:10:38;93354.31;;;20.54;87.02
39789;BME280;25478;42.626;23.320;2023-08-24T05:13:04;93337.19;;;20.51;86.49
39789;BME280;25478;42.626;23.320;2023-08-24T05:15:29;93357.38;;;20.77;86.08
39789;BME280;25478;42.626;23.320;2023-08-24T05:17:55;93353.31;;;20.86;85.66
39789;BME280;25478;42.626;23.320;2023-08-24T05:20:27;93362.78;;;20.99;85.22
39789;BME280;25478;42.626;23.320;2023-08-24T05:22:52;93362.84;;;21.08;85.22
39789;BME280;25478;42.626;23.320;2023-08-24T05:25:20;93370.53;;;21.19;85.26
39789;BME280;25478;42.626;23.320;2023-08-24T05:27:46;93363.03;;;21.27;85.52
39789;BME280;25478;42.626;23.320;2023-08-24T05:30:12;93378.91;;;21.43;84.90
39789;BME280;25478;42.626;23.320;2023-08-24T05:32:38;93388.34;;;21.48;85.35
39789;BME280;25478;42.626;23.320;2023-08-24T05:35:07;93387.47;;;21.51;85.17
39789;BME280;25478;42.626;23.320;2023-08-24T05:37:34;93386.16;;;21.55;84.95
39789;BME280;25478;42.626;23.320;2023-08-24T05:40:00;93391.72;;;21.61;84.48
39789;BME280;25478;42.626;23.320;2023-08-24T05:42:26;93380.16;;;21.51;84.27
39789;BME280;25478;42.626;23.320;2023-08-24T05:44:52;93388.59;;;21.62;84.05
39789;BME280;25478;42.626;23.320;2023-08-24T05:47:17;93385.78;;;21.66;83.32
39789;BME280;25478;42.626;23.320;2023-08-24T05:49:43;93383.41;;;21.68;83.16
39789;BME280;25478;42.626;23.320;2023-08-24T05:52:08;93387.47;;;21.73;82.94
39789;BME280;25478;42.626;23.320;2023-08-24T05:54:36;93393.19;;;21.84;82.38
39789;BME280;25478;42.626;23.320;2023-08-24T05:57:02;93379.00;;;21.74;82.15
39789;BME280;25478;42.626;23.320;2023-08-24T05:59:29;93396.38;;;21.91;81.67
39789;BME280;25478;42.626;23.320;2023-08-24T06:01:54;93369.38;;;21.86;81.47
39789;BME280;25478;42.626;23.320;2023-08-24T06:04:20;93386.50;;;22.10;81.00
39789;BME280;25478;42.626;23.320;2023-08-24T06:06:46;93396.72;;;22.25;80.72
39789;BME280;25478;42.626;23.320;2023-08-24T06:09:11;93400.63;;;22.33;80.15
39789;BME280;25478;42.626;23.320;2023-08-24T06:14:02;93406.31;;;22.44;79.06
39789;BME280;25478;42.626;23.320;2023-08-24T06:16:28;93402.50;;;22.54;78.73
39789;BME280;25478;42.626;23.320;2023-08-24T06:18:54;93400.47;;;22.76;78.11
39789;BME280;25478;42.626;23.320;2023-08-24T06:21:20;93408.63;;;23.04;76.56
39789;BME280;25478;42.626;23.320;2023-08-24T06:23:45;93411.47;;;23.37;75.04
39789;BME280;25478;42.626;23.320;2023-08-24T06:26:15;93400.16;;;23.51;73.39
39789;BME280;25478;42.626;23.320;2023-08-24T06:28:40;93407.78;;;23.80;72.42
39789;BME280;25478;42.626;23.320;2023-08-24T06:31:06;93416.13;;;24.01;71.22
39789;BME280;25478;42.626;23.320;2023-08-24T06:33:35;93413.84;;;24.18;70.18
39789;BME280;25478;42.626;23.320;2023-08-24T06:36:02;93406.47;;;24.36;69.69
39789;BME280;25478;42.626;23.320;2023-08-24T06:38:30;93401.56;;;24.68;68.59
39789;BME280;25478;42.626;23.320;2023-08-24T06:40:57;93400.41;;;24.93;66.96
39789;BME280;25478;42.626;23.320;2023-08-24T06:43:23;93407.38;;;25.09;65.98
39789;BME280;25478;42.626;23.320;2023-08-24T06:45:48;93402.19;;;25.20;65.02
39789;BME280;25478;42.626;23.320;2023-08-24T06:48:14;93401.38;;;25.29;64.51
39789;BME280;25478;42.626;23.320;2023-08-24T06:50:39;93402.94;;;25.44;63.91
39789;BME280;25478;42.626;23.320;2023-08-24T06:53:05;93402.03;;;25.62;63.03
39789;BME280;25478;42.626;23.320;2023-08-24T06:55:31;93400.13;;;25.77;62.91
39789;BME280;25478;42.626;23.320;2023-08-24T06:57:56;93410.69;;;25.90;61.51
39789;BME280;25478;42.626;23.320;2023-08-24T07:00:23;93412.97;;;25.97;60.93
39789;BME280;25478;42.626;23.320;2023-08-24T07:02:49;93400.91;;;26.07;60.57
39789;BME280;25478;42.626;23.320;2023-08-24T07:05:15;93407.88;;;26.29;59.40
39789;BME280;25478;42.626;23.320;2023-08-24T07:07:47;93407.69;;;26.47;58.38
39789;BME280;25478;42.626;23.320;2023-08-24T07:10:14;93390.75;;;26.47;57.45
39789;BME280;25478;42.626;23.320;2023-08-24T07:12:40;93403.75;;;26.63;56.77
39789;BME280;25478;42.626;23.320;2023-08-24T07:15:07;93400.47;;;26.74;56.38
39789;BME280;25478;42.626;23.320;2023-08-24T07:17:32;93402.22;;;26.91;55.04
39789;BME280;25478;42.626;23.320;2023-08-24T07:19:58;93396.03;;;27.06;54.08
39789;BME280;25478;42.626;23.320;2023-08-24T07:22:23;93397.94;;;27.20;53.20
39789;BME280;25478;42.626;23.320;2023-08-24T07:24:52;93388.00;;;27.32;52.56
39789;BME280;25478;42.626;23.320;2023-08-24T07:27:18;93397.66;;;27.38;52.70
39789;BME280;25478;42.626;23.320;2023-08-24T07:29:44;93390.97;;;27.34;52.49
39789;BME280;25478;42.626;23.320;2023-08-24T07:32:09;93388.47;;;27.30;52.46
39789;BME280;25478;42.626;23.320;2023-08-24T07:34:35;93395.75;;;27.24;53.16
39789;BME280;25478;42.626;23.320;2023-08-24T07:37:00;93390.97;;;27.13;53.83
39789;BME280;25478;42.626;23.320;2023-08-24T07:39:26;93395.56;;;27.07;54.00
39789;BME280;25478;42.626;23.320;2023-08-24T07:41:51;93395.03;;;27.03;53.92
39789;BME280;25478;42.626;23.320;2023-08-24T07:44:17;93396.03;;;27.06;54.01
39789;BME280;25478;42.626;23.320;2023-08-24T07:46:42;93391.84;;;27.05;54.10
39789;BME280;25478;42.626;23.320;2023-08-24T07:50:20;93398.34;;;26.98;54.24
39789;BME280;25478;42.626;23.320;2023-08-24T07:52:47;93395.84;;;26.94;54.42
39789;BME280;25478;42.626;23.320;2023-08-24T07:55:13;93390.47;;;26.94;55.03
39789;BME280;25478;42.626;23.320;2023-08-24T07:58:02;93387.75;;;26.94;54.44
39789;BME280;25478;42.626;23.320;2023-08-24T08:00:29;93383.09;;;26.95;53.82
39789;BME280;25478;42.626;23.320;2023-08-24T08:02:54;93396.13;;;26.97;53.99
39789;BME280;25478;42.626;23.320;2023-08-24T08:05:20;93400.22;;;27.07;54.04
39789;BME280;25478;42.626;23.320;2023-08-24T08:07:45;93396.38;;;27.13;54.00
39789;BME280;25478;42.626;23.320;2023-08-24T08:10:11;93403.13;;;27.24;53.78
39789;BME280;25478;42.626;23.320;2023-08-24T08:12:36;93397.19;;;27.40;53.20
39789;BME280;25478;42.626;23.320;2023-08-24T08:15:02;93399.50;;;27.67;51.94
39789;BME280;25478;42.626;23.320;2023-08-24T08:17:28;93402.38;;;27.84;51.38
39789;BME280;25478;42.626;23.320;2023-08-24T08:19:56;93398.34;;;28.00;51.03
39789;BME280;25478;42.626;23.320;2023-08-24T08:22:21;93401.84;;;28.06;50.59
39789;BME280;25478;42.626;23.320;2023-08-24T08:24:47;93404.66;;;28.17;50.36
39789;BME280;25478;42.626;23.320;2023-08-24T08:27:13;93387.19;;;28.18;50.78
39789;BME280;25478;42.626;23.320;2023-08-24T08:29:38;93401.38;;;28.34;48.45
39789;BME280;25478;42.626;23.320;2023-08-24T08:32:04;93396.38;;;28.26;47.92
39789;BME280;25478;42.626;23.320;2023-08-24T08:34:31;93401.16;;;28.37;48.25
39789;BME280;25478;42.626;23.320;2023-08-24T08:36:57;93398.00;;;28.44;47.61
39789;BME280;25478;42.626;23.320;2023-08-24T08:39:22;93392.91;;;28.57;46.09
39789;BME280;25478;42.626;23.320;2023-08-24T08:41:48;93387.28;;;28.61;45.55
39789;BME280;25478;42.626;23.320;2023-08-24T08:44:14;93386.13;;;28.68;45.58
39789;BME280;25478;42.626;23.320;2023-08-24T08:46:43;93370.59;;;28.68;44.58
39789;BME280;25478;42.626;23.320;2023-08-24T08:49:11;93381.09;;;28.92;44.25
39789;BME280;25478;42.626;23.320;2023-08-24T08:51:41;93378.47;;;29.09;43.92
39789;BME280;25478;42.626;23.320;2023-08-24T08:54:07;93378.03;;;29.22;43.97
39789;BME280;25478;42.626;23.320;2023-08-24T08:56:32;93370.69;;;29.33;42.70
39789;BME280;25478;42.626;23.320;2023-08-24T08:58:59;93372.41;;;29.31;42.49
39789;BME280;25478;42.626;23.320;2023-08-24T09:01:26;93368.50;;;29.37;41.45
39789;BME280;25478;42.626;23.320;2023-08-24T09:03:53;93366.53;;;29.38;41.01
39789;BME280;25478;42.626;23.320;2023-08-24T09:06:19;93358.16;;;29.41;40.57
39789;BME280;25478;42.626;23.320;2023-08-24T09:08:45;93354.50;;;29.50;40.51
39789;BME280;25478;42.626;23.320;2023-08-24T09:11:11;93351.09;;;29.61;40.39
39789;BME280;25478;42.626;23.320;2023-08-24T09:13:36;93356.03;;;29.62;40.50
39789;BME280;25478;42.626;23.320;2023-08-24T09:16:06;93349.63;;;29.65;41.07
39789;BME280;25478;42.626;23.320;2023-08-24T09:18:36;93341.72;;;29.62;40.47
39789;BME280;25478;42.626;23.320;2023-08-24T09:21:09;93344.41;;;29.56;40.61
39789;BME280;25478;42.626;23.320;2023-08-24T09:23:35;93340.22;;;29.55;40.98
39789;BME280;25478;42.626;23.320;2023-08-24T09:26:01;93340.72;;;29.65;41.97
39789;BME280;25478;42.626;23.320;2023-08-24T09:28:26;93336.81;;;29.71;41.47
39789;BME280;25478;42.626;23.320;2023-08-24T09:30:53;93335.59;;;29.78;41.60
39789;BME280;25478;42.626;23.320;2023-08-24T09:33:20;93332.88;;;29.89;41.70
39789;BME280;25478;42.626;23.320;2023-08-24T09:35:55;93329.44;;;30.06;41.00
39789;BME280;25478;42.626;23.320;2023-08-24T09:38:27;93326.00;;;30.16;40.25
39789;BME280;25478;42.626;23.320;2023-08-24T09:40:56;93323.53;;;30.30;39.88
39789;BME280;25478;42.626;23.320;2023-08-24T09:43:22;93317.63;;;30.37;39.68
39789;BME280;25478;42.626;23.320;2023-08-24T09:45:55;93322.53;;;30.49;38.96
39789;BME280;25478;42.626;23.320;2023-08-24T09:48:22;93319.31;;;30.57;39.40
39789;BME280;25478;42.626;23.320;2023-08-24T09:50:49;93303.97;;;30.65;38.91
39789;BME280;25478;42.626;23.320;2023-08-24T09:53:17;93317.81;;;30.78;38.59
39789;BME280;25478;42.626;23.320;2023-08-24T09:55:53;93305.19;;;30.80;38.44
39789;BME280;25478;42.626;23.320;2023-08-24T09:58:22;93308.16;;;30.77;38.07
39789;BME280;25478;42.626;23.320;2023-08-24T10:00:49;93312.13;;;30.76;38.57
39789;BME280;25478;42.626;23.320;2023-08-24T10:03:19;93303.00;;;30.79;38.21
39789;BME280;25478;42.626;23.320;2023-08-24T10:05:53;93304.69;;;30.88;38.29
39789;BME280;25478;42.626;23.320;2023-08-24T10:08:26;93304.66;;;30.93;37.23
39789;BME280;25478;42.626;23.320;2023-08-24T10:11:00;93299.72;;;30.92;37.13
39789;BME280;25478;42.626;23.320;2023-08-24T10:14:04;93299.94;;;30.94;37.31
39789;BME280;25478;42.626;23.320;2023-08-24T10:16:35;93297.94;;;31.11;36.88
39789;BME280;25478;42.626;23.320;2023-08-24T10:21:11;93295.91;;;31.28;36.16
39789;BME280;25478;42.626;23.320;2023-08-24T10:23:38;93291.06;;;31.51;36.32
39789;BME280;25478;42.626;23.320;2023-08-24T10:26:28;93297.59;;;31.78;35.77
39789;BME280;25478;42.626;23.320;2023-08-24T10:28:54;93284.88;;;31.92;35.61
39789;BME280;25478;42.626;23.320;2023-08-24T10:31:20;93288.69;;;32.13;35.12
39789;BME280;25478;42.626;23.320;2023-08-24T10:33:47;93289.53;;;32.33;34.31
39789;BME280;25478;42.626;23.320;2023-08-24T10:36:13;93291.16;;;32.41;34.78
39789;BME280;25478;42.626;23.320;2023-08-24T10:38:40;93276.25;;;32.48;34.03
39789;BME280;25478;42.626;23.320;2023-08-24T10:41:07;93286.50;;;32.61;33.69
39789;BME280;25478;42.626;23.320;2023-08-24T10:43:40;93286.25;;;32.64;33.72
39789;BME280;25478;42.626;23.320;2023-08-24T10:46:15;93284.03;;;32.63;33.49
39789;BME280;25478;42.626;23.320;2023-08-24T10:53:44;93267.97;;;32.05;33.67
39789;BME280;25478;42.626;23.320;2023-08-24T10:56:11;93271.00;;;31.96;33.00
39789;BME280;25478;42.626;23.320;2023-08-24T10:58:37;93279.00;;;31.82;32.99
39789;BME280;25478;42.626;23.320;2023-08-24T11:01:03;93273.38;;;31.69;33.76
39789;BME280;25478;42.626;23.320;2023-08-24T11:03:32;93274.69;;;31.62;33.93
39789;BME280;25478;42.626;23.320;2023-08-24T11:05:58;93266.25;;;31.60;33.87
39789;BME280;25478;42.626;23.320;2023-08-24T11:08:44;93250.97;;;31.57;34.20
39789;BME280;25478;42.626;23.320;2023-08-24T11:11:20;93261.03;;;31.68;33.87
39789;BME280;25478;42.626;23.320;2023-08-24T11:14:24;93274.81;;;31.76;34.31
39789;BME280;25478;42.626;23.320;2023-08-24T11:16:57;93265.28;;;31.63;36.50
39789;BME280;25478;42.626;23.320;2023-08-24T11:19:23;93266.72;;;31.18;37.40
39789;BME280;25478;42.626;23.320;2023-08-24T11:21:48;93263.72;;;30.69;38.76
39789;BME280;25478;42.626;23.320;2023-08-24T11:24:15;93252.16;;;30.40;39.82
39789;BME280;25478;42.626;23.320;2023-08-24T11:26:46;93206.31;;;30.14;40.14
39789;BME280;25478;42.626;23.320;2023-08-24T11:29:11;93251.66;;;30.47;40.53
39789;BME280;25478;42.626;23.320;2023-08-24T11:31:38;93251.91;;;30.49;40.05
39789;BME280;25478;42.626;23.320;2023-08-24T11:34:04;93266.50;;;30.41;40.19
39789;BME280;25478;42.626;23.320;2023-08-24T11:37:02;93253.94;;;30.21;40.07
39789;BME280;25478;42.626;23.320;2023-08-24T11:39:28;93272.22;;;30.20;40.61
39789;BME280;25478;42.626;23.320;2023-08-24T11:42:04;93258.63;;;30.04;40.75
39789;BME280;25478;42.626;23.320;2023-08-24T11:44:30;93282.06;;;29.95;41.57
39789;BME280;25478;42.626;23.320;2023-08-24T11:47:10;93267.25;;;29.68;41.37
39789;BME280;25478;42.626;23.320;2023-08-24T11:49:35;93281.28;;;29.67;41.86
39789;BME280;25478;42.626;23.320;2023-08-24T11:52:01;93271.91;;;29.57;42.12
39789;BME280;25478;42.626;23.320;2023-08-24T11:54:27;93273.13;;;29.50;41.26
39789;BME280;25478;42.626;23.320;2023-08-24T11:56:52;93276.78;;;29.41;40.53
39789;BME280;25478;42.626;23.320;2023-08-24T11:59:18;93267.94;;;29.35;39.88
39789;BME280;25478;42.626;23.320;2023-08-24T12:01:45;93268.66;;;29.36;39.92
39789;BME280;25478;42.626;23.320;2023-08-24T12:04:11;93258.78;;;29.33;39.70
39789;BME280;25478;42.626;23.320;2023-08-24T12:06:38;93251.41;;;29.28;40.23
39789;BME280;25478;42.626;23.320;2023-08-24T12:09:05;93225.97;;;29.25;40.44
39789;BME280;25478;42.626;23.320;2023-08-24T12:11:35;93233.88;;;29.23;40.69
39789;BME280;25478;42.626;23.320;2023-08-24T12:14:02;93221.56;;;29.22;41.62
39789;BME280;25478;42.626;23.320;2023-08-24T12:16:31;93225.50;;;29.21;41.33
39789;BME280;25478;42.626;23.320;2023-08-24T12:18:59;93231.91;;;29.18;40.94
39789;BME280;25478;42.626;23.320;2023-08-24T12:21:26;93227.69;;;29.11;40.44
39789;BME280;25478;42.626;23.320;2023-08-24T12:23:59;93231.88;;;29.07;40.82
39789;BME280;25478;42.626;23.320;2023-08-24T12:26:25;93236.75;;;28.92;41.16
39789;BME280;25478;42.626;23.320;2023-08-24T12:28:51;93228.09;;;28.87;41.08
39789;BME280;25478;42.626;23.320;2023-08-24T12:31:20;93239.72;;;28.94;41.88
39789;BME280;25478;42.626;23.320;2023-08-24T12:34:00;93242.09;;;28.80;41.83
39789;BME280;25478;42.626;23.320;2023-08-24T12:36:26;93251.22;;;28.83;42.29
39789;BME280;25478;42.626;23.320;2023-08-24T12:38:52;93246.28;;;28.81;42.13
39789;BME280;25478;42.626;23.320;2023-08-24T12:41:17;93239.91;;;28.84;42.35
39789;BME280;25478;42.626;23.320;2023-08-24T12:43:42;93235.25;;;28.91;42.40
39789;BME280;25478;42.626;23.320;2023-08-24T12:46:08;93234.31;;;28.99;42.94
39789;BME280;25478;42.626;23.320;2023-08-24T12:48:34;93215.28;;;28.88;42.81
39789;BME280;25478;42.626;23.320;2023-08-24T12:51:00;93234.34;;;29.05;42.91
39789;BME280;25478;42.626;23.320;2023-08-24T12:53:25;93243.44;;;29.07;42.20
39789;BME280;25478;42.626;23.320;2023-08-24T12:55:51;93245.91;;;29.05;42.82
39789;BME280;25478;42.626;23.320;2023-08-24T12:58:16;93248.88;;;29.07;42.62
39789;BME280;25478;42.626;23.320;2023-08-24T13:00:44;93258.00;;;29.10;42.64
39789;BME280;25478;42.626;23.320;2023-08-24T13:03:09;93259.50;;;29.11;42.24